sensor_id;sensor_type;location;lat;lon;timestamp;temperature;humidity
18291;DHT22;9271;48.590;8.866;2023-05-25T00:00:47;11.50;82.90
18291;DHT22;9271;48.590;8.866;2023-05-25T00:03:13;11.50;82.80
18291;DHT22;9271;48.590;8.866;2023-05-25T00:05:40;11.40;83.30
18291;DHT22;9271;48.590;8.866;2023-05-25T00:08:07;11.30;83.80
18291;DHT22;9271;48.590;8.866;2023-05-25T00:10:33;11.30;84.40
18291;DHT22;9271;48.590;8.866;2023-05-25T00:13:01;11.30;84.90
18291;DHT22;9271;48.590;8.866;2023-05-25T00:15:28;11.30;85.10
18291;DHT22;9271;48.590;8.866;2023-05-25T00:17:55;11.30;85.60
18291;DHT22;9271;48.590;8.866;2023-05-25T00:20:21;11.50;85.20
18291;DHT22;9271;48.590;8.866;2023-05-25T00:22:48;11.50;85.10
18291;DHT22;9271;48.590;8.866;2023-05-25T00:25:16;11.50;85.20
18291;DHT22;9271;48.590;8.866;2023-05-25T00:27:45;11.60;86.00
18291;DHT22;9271;48.590;8.866;2023-05-25T00:30:13;11.70;85.90
18291;DHT22;9271;48.590;8.866;2023-05-25T00:32:40;11.70;85.30
18291;DHT22;9271;48.590;8.866;2023-05-25T00:35:07;11.60;85.50
18291;DHT22;9271;48.590;8.866;2023-05-25T00:37:34;11.80;85.40
18291;DHT22;9271;48.590;8.866;2023-05-25T00:40:01;11.80;85.90
18291;DHT22;9271;48.590;8.866;2023-05-25T00:42:29;11.90;85.30
18291;DHT22;9271;48.590;8.866;2023-05-25T00:44:55;11.90;85.80
18291;DHT22;9271;48.590;8.866;2023-05-25T00:47:23;11.80;85.60
18291;DHT22;9271;48.590;8.866;2023-05-25T00:49:50;11.80;85.50
18291;DHT22;9271;48.590;8.866;2023-05-25T00:52:17;11.80;85.50
18291;DHT22;9271;48.590;8.866;2023-05-25T00:54:47;12.00;85.30
18291;DHT22;9271;48.590;8.866;2023-05-25T00:57:16;12.00;85.40
18291;DHT22;9271;48.590;8.866;2023-05-25T00:59:45;12.00;85.30
18291;DHT22;9271;48.590;8.866;2023-05-25T01:02:15;12.10;85.60
18291;DHT22;9271;48.590;8.866;2023-05-25T01:04:46;12.10;86.10
18291;DHT22;9271;48.590;8.866;2023-05-25T01:07:18;12.10;86.60
18291;DHT22;9271;48.590;8.866;2023-05-25T01:09:48;12.10;86.10
18291;DHT22;9271;48.590;8.866;2023-05-25T01:12:17;12.30;85.80
18291;DHT22;9271;48.590;8.866;2023-05-25T01:14:44;12.40;86.10
18291;DHT22;9271;48.590;8.866;2023-05-25T01:17:14;12.50;85.70
18291;DHT22;9271;48.590;8.866;2023-05-25T01:19:42;12.40;86.20
18291;DHT22;9271;48.590;8.866;2023-05-25T01:22:16;12.50;86.20
18291;DHT22;9271;48.590;8.866;2023-05-25T01:24:47;12.60;85.40
18291;DHT22;9271;48.590;8.866;2023-05-25T01:27:17;12.60;85.40
18291;DHT22;9271;48.590;8.866;2023-05-25T01:29:47;12.60;85.30
18291;DHT22;9271;48.590;8.866;2023-05-25T01:32:16;12.50;85.20
18291;DHT22;9271;48.590;8.866;2023-05-25T01:34:44;12.50;85.20
18291;DHT22;9271;48.590;8.866;2023-05-25T01:37:13;12.60;83.60
18291;DHT22;9271;48.590;8.866;2023-05-25T01:39:42;12.60;83.70
18291;DHT22;9271;48.590;8.866;2023-05-25T01:42:08;12.60;83.80
18291;DHT22;9271;48.590;8.866;2023-05-25T01:44:36;12.60;83.90
18291;DHT22;9271;48.590;8.866;2023-05-25T01:47:06;12.60;84.30
18291;DHT22;9271;48.590;8.866;2023-05-25T01:49:42;12.50;84.80
18291;DHT22;9271;48.590;8.866;2023-05-25T01:52:17;12.50;84.60
18291;DHT22;9271;48.590;8.866;2023-05-25T01:54:50;12.40;85.50
18291;DHT22;9271;48.590;8.866;2023-05-25T01:57:18;12.40;85.20
18291;DHT22;9271;48.590;8.866;2023-05-25T01:59:46;12.30;85.10
18291;DHT22;9271;48.590;8.866;2023-05-25T02:02:14;12.30;85.00
18291;DHT22;9271;48.590;8.866;2023-05-25T02:04:41;12.10;86.40
18291;DHT22;9271;48.590;8.866;2023-05-25T02:07:08;12.00;86.50
18291;DHT22;9271;48.590;8.866;2023-05-25T02:09:36;12.00;86.50
18291;DHT22;9271;48.590;8.866;2023-05-25T02:12:03;11.90;87.70
18291;DHT22;9271;48.590;8.866;2023-05-25T02:14:30;11.70;88.60
18291;DHT22;9271;48.590;8.866;2023-05-25T02:16:57;11.70;88.50
18291;DHT22;9271;48.590;8.866;2023-05-25T02:19:26;11.80;88.30
18291;DHT22;9271;48.590;8.866;2023-05-25T02:21:52;11.80;88.00
18291;DHT22;9271;48.590;8.866;2023-05-25T02:24:21;11.60;88.80
18291;DHT22;9271;48.590;8.866;2023-05-25T02:26:50;11.50;88.90
18291;DHT22;9271;48.590;8.866;2023-05-25T02:29:16;11.50;89.60
18291;DHT22;9271;48.590;8.866;2023-05-25T02:31:43;11.30;90.10
18291;DHT22;9271;48.590;8.866;2023-05-25T02:34:10;11.30;90.10
18291;DHT22;9271;48.590;8.866;2023-05-25T02:36:38;11.30;90.10
18291;DHT22;9271;48.590;8.866;2023-05-25T02:39:08;11.30;90.40
18291;DHT22;9271;48.590;8.866;2023-05-25T02:41:35;11.30;90.50
18291;DHT22;9271;48.590;8.866;2023-05-25T02:44:03;11.20;90.30
18291;DHT22;9271;48.590;8.866;2023-05-25T02:46:29;11.20;90.00
18291;DHT22;9271;48.590;8.866;2023-05-25T02:48:58;11.20;90.30
18291;DHT22;9271;48.590;8.866;2023-05-25T02:51:24;11.10;90.10
18291;DHT22;9271;48.590;8.866;2023-05-25T02:53:51;11.10;90.90
18291;DHT22;9271;48.590;8.866;2023-05-25T02:56:18;11.20;90.90
18291;DHT22;9271;48.590;8.866;2023-05-25T02:58:46;11.20;91.00
18291;DHT22;9271;48.590;8.866;2023-05-25T03:01:14;11.10;90.60
18291;DHT22;9271;48.590;8.866;2023-05-25T03:03:42;11.00;90.70
18291;DHT22;9271;48.590;8.866;2023-05-25T03:06:09;11.00;91.00
18291;DHT22;9271;48.590;8.866;2023-05-25T03:08:37;10.80;91.10
18291;DHT22;9271;48.590;8.866;2023-05-25T03:11:03;10.60;91.70
18291;DHT22;9271;48.590;8.866;2023-05-25T03:13:30;10.60;92.10
18291;DHT22;9271;48.590;8.866;2023-05-25T03:15:57;10.70;92.20
18291;DHT22;9271;48.590;8.866;2023-05-25T03:18:25;10.70;91.80
18291;DHT22;9271;48.590;8.866;2023-05-25T03:20:51;10.70;92.20
18291;DHT22;9271;48.590;8.866;2023-05-25T03:23:18;10.60;92.20
18291;DHT22;9271;48.590;8.866;2023-05-25T03:25:45;10.60;92.00
18291;DHT22;9271;48.590;8.866;2023-05-25T03:28:11;10.40;92.70
18291;DHT22;9271;48.590;8.866;2023-05-25T03:30:38;10.50;92.80
18291;DHT22;9271;48.590;8.866;2023-05-25T03:33:05;10.30;93.00
18291;DHT22;9271;48.590;8.866;2023-05-25T03:35:33;10.40;93.10
18291;DHT22;9271;48.590;8.866;2023-05-25T03:37:59;10.50;93.20
18291;DHT22;9271;48.590;8.866;2023-05-25T03:40:26;10.50;92.70
18291;DHT22;9271;48.590;8.866;2023-05-25T03:42:53;10.20;93.20
18291;DHT22;9271;48.590;8.866;2023-05-25T03:45:20;10.30;93.70
18291;DHT22;9271;48.590;8.866;2023-05-25T03:47:46;10.20;93.30
18291;DHT22;9271;48.590;8.866;2023-05-25T03:50:14;9.90;95.00
18291;DHT22;9271;48.590;8.866;2023-05-25T03:52:42;9.90;94.90
18291;DHT22;9271;48.590;8.866;2023-05-25T03:55:09;9.80;95.00
18291;DHT22;9271;48.590;8.866;2023-05-25T03:57:36;9.80;95.40
18291;DHT22;9271;48.590;8.866;2023-05-25T04:00:04;10.00;95.00
18291;DHT22;9271;48.590;8.866;2023-05-25T04:02:32;10.20;94.60
18291;DHT22;9271;48.590;8.866;2023-05-25T04:04:59;10.30;94.30
18291;DHT22;9271;48.590;8.866;2023-05-25T04:07:25;10.30;94.10
18291;DHT22;9271;48.590;8.866;2023-05-25T04:09:55;10.40;94.30
18291;DHT22;9271;48.590;8.866;2023-05-25T04:12:23;10.40;94.10
18291;DHT22;9271;48.590;8.866;2023-05-25T04:14:50;10.40;94.20
18291;DHT22;9271;48.590;8.866;2023-05-25T04:17:17;10.50;94.20
18291;DHT22;9271;48.590;8.866;2023-05-25T04:19:46;10.60;94.10
18291;DHT22;9271;48.590;8.866;2023-05-25T04:22:13;10.60;93.90
18291;DHT22;9271;48.590;8.866;2023-05-25T04:24:40;10.60;93.90
18291;DHT22;9271;48.590;8.866;2023-05-25T04:27:08;10.60;94.10
18291;DHT22;9271;48.590;8.866;2023-05-25T04:29:34;10.60;94.20
18291;DHT22;9271;48.590;8.866;2023-05-25T04:32:01;10.50;94.40
18291;DHT22;9271;48.590;8.866;2023-05-25T04:34:28;10.80;94.10
18291;DHT22;9271;48.590;8.866;2023-05-25T04:36:58;10.90;94.10
18291;DHT22;9271;48.590;8.866;2023-05-25T04:39:27;11.00;93.80
18291;DHT22;9271;48.590;8.866;2023-05-25T04:41:54;11.20;94.00
18291;DHT22;9271;48.590;8.866;2023-05-25T04:44:22;11.30;93.80
18291;DHT22;9271;48.590;8.866;2023-05-25T04:46:50;11.40;93.30
18291;DHT22;9271;48.590;8.866;2023-05-25T04:49:16;11.30;93.20
18291;DHT22;9271;48.590;8.866;2023-05-25T04:51:44;11.40;93.10
18291;DHT22;9271;48.590;8.866;2023-05-25T04:54:10;11.40;93.00
18291;DHT22;9271;48.590;8.866;2023-05-25T04:56:37;11.30;93.20
18291;DHT22;9271;48.590;8.866;2023-05-25T04:59:03;11.60;93.20
18291;DHT22;9271;48.590;8.866;2023-05-25T05:01:32;11.70;92.80
18291;DHT22;9271;48.590;8.866;2023-05-25T05:04:04;11.80;92.50
18291;DHT22;9271;48.590;8.866;2023-05-25T05:06:31;11.60;92.90
18291;DHT22;9271;48.590;8.866;2023-05-25T05:08:58;11.40;93.40
18291;DHT22;9271;48.590;8.866;2023-05-25T05:11:26;11.50;93.30
18291;DHT22;9271;48.590;8.866;2023-05-25T05:13:52;11.60;93.30
18291;DHT22;9271;48.590;8.866;2023-05-25T05:16:19;11.80;93.10
18291;DHT22;9271;48.590;8.866;2023-05-25T05:18:47;12.10;92.70
18291;DHT22;9271;48.590;8.866;2023-05-25T05:21:14;12.40;92.00
18291;DHT22;9271;48.590;8.866;2023-05-25T05:23:42;12.60;91.70
18291;DHT22;9271;48.590;8.866;2023-05-25T05:26:08;12.90;91.10
18291;DHT22;9271;48.590;8.866;2023-05-25T05:28:36;13.10;90.90
18291;DHT22;9271;48.590;8.866;2023-05-25T05:31:02;13.20;91.00
18291;DHT22;9271;48.590;8.866;2023-05-25T05:33:29;13.40;90.80
18291;DHT22;9271;48.590;8.866;2023-05-25T05:35:57;13.40;90.60
18291;DHT22;9271;48.590;8.866;2023-05-25T05:38:25;13.50;90.30
18291;DHT22;9271;48.590;8.866;2023-05-25T05:40:51;13.60;90.10
18291;DHT22;9271;48.590;8.866;2023-05-25T05:43:18;13.70;89.40
18291;DHT22;9271;48.590;8.866;2023-05-25T05:45:45;13.60;89.80
18291;DHT22;9271;48.590;8.866;2023-05-25T05:48:11;13.80;89.10
18291;DHT22;9271;48.590;8.866;2023-05-25T05:50:39;13.90;89.40
18291;DHT22;9271;48.590;8.866;2023-05-25T05:53:07;13.80;89.10
18291;DHT22;9271;48.590;8.866;2023-05-25T05:55:34;14.00;88.90
18291;DHT22;9271;48.590;8.866;2023-05-25T05:58:01;13.90;88.40
18291;DHT22;9271;48.590;8.866;2023-05-25T06:00:27;13.80;89.10
18291;DHT22;9271;48.590;8.866;2023-05-25T06:02:54;14.10;89.80
18291;DHT22;9271;48.590;8.866;2023-05-25T06:05:21;14.30;87.80
18291;DHT22;9271;48.590;8.866;2023-05-25T06:07:47;14.40;88.10
18291;DHT22;9271;48.590;8.866;2023-05-25T06:10:15;14.30;87.90
18291;DHT22;9271;48.590;8.866;2023-05-25T06:12:42;14.60;87.60
18291;DHT22;9271;48.590;8.866;2023-05-25T06:15:10;14.60;87.40
18291;DHT22;9271;48.590;8.866;2023-05-25T06:17:36;14.80;86.90
18291;DHT22;9271;48.590;8.866;2023-05-25T06:20:04;15.10;86.00
18291;DHT22;9271;48.590;8.866;2023-05-25T06:22:31;15.30;86.20
18291;DHT22;9271;48.590;8.866;2023-05-25T06:24:57;15.80;84.30
18291;DHT22;9271;48.590;8.866;2023-05-25T06:27:25;16.20;84.00
18291;DHT22;9271;48.590;8.866;2023-05-25T06:29:52;16.30;82.50
18291;DHT22;9271;48.590;8.866;2023-05-25T06:32:19;16.30;83.20
18291;DHT22;9271;48.590;8.866;2023-05-25T06:34:46;16.40;82.30
18291;DHT22;9271;48.590;8.866;2023-05-25T06:37:13;16.50;82.00
18291;DHT22;9271;48.590;8.866;2023-05-25T06:39:40;16.40;82.10
18291;DHT22;9271;48.590;8.866;2023-05-25T06:42:07;16.50;82.40
18291;DHT22;9271;48.590;8.866;2023-05-25T06:44:35;16.70;82.40
18291;DHT22;9271;48.590;8.866;2023-05-25T06:47:02;17.20;80.30
18291;DHT22;9271;48.590;8.866;2023-05-25T06:49:29;17.40;81.00
18291;DHT22;9271;48.590;8.866;2023-05-25T06:51:56;17.80;79.80
18291;DHT22;9271;48.590;8.866;2023-05-25T06:54:22;18.10;77.90
18291;DHT22;9271;48.590;8.866;2023-05-25T06:56:49;18.30;76.60
18291;DHT22;9271;48.590;8.866;2023-05-25T06:59:16;18.60;77.00
18291;DHT22;9271;48.590;8.866;2023-05-25T07:01:44;18.50;75.60
18291;DHT22;9271;48.590;8.866;2023-05-25T07:04:11;18.70;76.70
18291;DHT22;9271;48.590;8.866;2023-05-25T07:06:38;18.90;76.50
18291;DHT22;9271;48.590;8.866;2023-05-25T07:09:05;19.50;75.90
18291;DHT22;9271;48.590;8.866;2023-05-25T07:11:32;19.70;73.70
18291;DHT22;9271;48.590;8.866;2023-05-25T07:13:58;19.90;73.40
18291;DHT22;9271;48.590;8.866;2023-05-25T07:16:25;20.20;73.50
18291;DHT22;9271;48.590;8.866;2023-05-25T07:18:53;20.60;71.30
18291;DHT22;9271;48.590;8.866;2023-05-25T07:21:19;21.10;69.20
18291;DHT22;9271;48.590;8.866;2023-05-25T07:23:46;21.20;68.10
18291;DHT22;9271;48.590;8.866;2023-05-25T07:26:13;20.90;68.90
18291;DHT22;9271;48.590;8.866;2023-05-25T07:28:40;20.20;70.10
18291;DHT22;9271;48.590;8.866;2023-05-25T07:31:07;19.90;70.70
18291;DHT22;9271;48.590;8.866;2023-05-25T07:33:34;19.80;72.00
18291;DHT22;9271;48.590;8.866;2023-05-25T07:36:02;19.30;72.00
18291;DHT22;9271;48.590;8.866;2023-05-25T07:38:28;18.90;73.20
18291;DHT22;9271;48.590;8.866;2023-05-25T07:40:55;18.80;75.20
18291;DHT22;9271;48.590;8.866;2023-05-25T07:43:22;18.70;74.60
18291;DHT22;9271;48.590;8.866;2023-05-25T07:45:49;18.80;75.80
18291;DHT22;9271;48.590;8.866;2023-05-25T07:48:15;19.00;74.80
18291;DHT22;9271;48.590;8.866;2023-05-25T07:50:42;19.00;74.90
18291;DHT22;9271;48.590;8.866;2023-05-25T07:53:10;19.30;75.10
18291;DHT22;9271;48.590;8.866;2023-05-25T07:55:37;19.40;74.80
18291;DHT22;9271;48.590;8.866;2023-05-25T07:58:03;19.60;74.90
18291;DHT22;9271;48.590;8.866;2023-05-25T08:00:31;20.10;74.20
18291;DHT22;9271;48.590;8.866;2023-05-25T08:02:58;20.80;72.40
18291;DHT22;9271;48.590;8.866;2023-05-25T08:05:26;21.70;69.90
18291;DHT22;9271;48.590;8.866;2023-05-25T08:07:53;23.60;65.80
18291;DHT22;9271;48.590;8.866;2023-05-25T08:10:21;25.40;60.20
18291;DHT22;9271;48.590;8.866;2023-05-25T08:12:50;26.50;57.00
18291;DHT22;9271;48.590;8.866;2023-05-25T08:15:17;27.00;54.30
18291;DHT22;9271;48.590;8.866;2023-05-25T08:17:44;27.30;52.60
18291;DHT22;9271;48.590;8.866;2023-05-25T08:20:13;27.10;50.60
18291;DHT22;9271;48.590;8.866;2023-05-25T08:22:39;27.70;51.40
18291;DHT22;9271;48.590;8.866;2023-05-25T08:25:07;28.10;50.10
18291;DHT22;9271;48.590;8.866;2023-05-25T08:27:35;28.70;49.50
18291;DHT22;9271;48.590;8.866;2023-05-25T08:30:02;29.70;47.30
18291;DHT22;9271;48.590;8.866;2023-05-25T08:32:30;29.70;45.70
18291;DHT22;9271;48.590;8.866;2023-05-25T08:34:56;30.00;45.20
18291;DHT22;9271;48.590;8.866;2023-05-25T08:37:23;30.00;45.50
18291;DHT22;9271;48.590;8.866;2023-05-25T08:39:50;30.70;45.00
18291;DHT22;9271;48.590;8.866;2023-05-25T08:42:17;31.60;41.80
18291;DHT22;9271;48.590;8.866;2023-05-25T08:44:45;32.30;40.90
18291;DHT22;9271;48.590;8.866;2023-05-25T08:47:12;33.10;40.40
18291;DHT22;9271;48.590;8.866;2023-05-25T08:49:40;32.50;39.10
18291;DHT22;9271;48.590;8.866;2023-05-25T08:52:10;30.50;42.00
18291;DHT22;9271;48.590;8.866;2023-05-25T08:54:42;29.70;44.00
18291;DHT22;9271;48.590;8.866;2023-05-25T08:57:13;30.70;43.20
18291;DHT22;9271;48.590;8.866;2023-05-25T08:59:45;32.00;41.00
18291;DHT22;9271;48.590;8.866;2023-05-25T09:02:21;33.80;39.70
18291;DHT22;9271;48.590;8.866;2023-05-25T09:04:49;34.90;37.30
18291;DHT22;9271;48.590;8.866;2023-05-25T09:07:16;34.50;37.00
18291;DHT22;9271;48.590;8.866;2023-05-25T09:09:44;34.20;36.20
18291;DHT22;9271;48.590;8.866;2023-05-25T09:12:13;34.00;36.10
18291;DHT22;9271;48.590;8.866;2023-05-25T09:14:40;34.80;36.60
18291;DHT22;9271;48.590;8.866;2023-05-25T09:17:12;34.70;36.10
18291;DHT22;9271;48.590;8.866;2023-05-25T09:19:39;34.80;34.90
18291;DHT22;9271;48.590;8.866;2023-05-25T09:22:05;33.50;36.20
18291;DHT22;9271;48.590;8.866;2023-05-25T09:24:33;32.20;38.40
18291;DHT22;9271;48.590;8.866;2023-05-25T09:27:00;30.20;40.30
18291;DHT22;9271;48.590;8.866;2023-05-25T09:29:28;28.90;43.20
18291;DHT22;9271;48.590;8.866;2023-05-25T09:31:55;27.80;44.90
18291;DHT22;9271;48.590;8.866;2023-05-25T09:34:23;27.20;47.20
18291;DHT22;9271;48.590;8.866;2023-05-25T09:36:56;26.50;48.40
18291;DHT22;9271;48.590;8.866;2023-05-25T09:39:22;25.90;49.90
18291;DHT22;9271;48.590;8.866;2023-05-25T09:41:51;25.20;51.00
18291;DHT22;9271;48.590;8.866;2023-05-25T09:44:18;25.50;50.90
18291;DHT22;9271;48.590;8.866;2023-05-25T09:46:44;25.90;50.00
18291;DHT22;9271;48.590;8.866;2023-05-25T09:49:11;26.60;50.20
18291;DHT22;9271;48.590;8.866;2023-05-25T09:51:39;26.90;48.50
18291;DHT22;9271;48.590;8.866;2023-05-25T09:54:08;26.50;49.10
18291;DHT22;9271;48.590;8.866;2023-05-25T09:56:35;26.30;49.70
18291;DHT22;9271;48.590;8.866;2023-05-25T09:59:02;26.80;49.20
18291;DHT22;9271;48.590;8.866;2023-05-25T10:01:30;27.30;48.80
18291;DHT22;9271;48.590;8.866;2023-05-25T10:03:57;28.50;47.40
18291;DHT22;9271;48.590;8.866;2023-05-25T10:06:26;29.00;46.80
18291;DHT22;9271;48.590;8.866;2023-05-25T10:08:56;28.60;46.00
18291;DHT22;9271;48.590;8.866;2023-05-25T10:11:24;29.50;46.60
18291;DHT22;9271;48.590;8.866;2023-05-25T10:13:52;29.70;44.40
18291;DHT22;9271;48.590;8.866;2023-05-25T10:16:24;30.50;43.60
18291;DHT22;9271;48.590;8.866;2023-05-25T10:18:58;30.50;43.70
18291;DHT22;9271;48.590;8.866;2023-05-25T10:21:28;31.20;44.30
18291;DHT22;9271;48.590;8.866;2023-05-25T10:24:03;31.40;41.10
18291;DHT22;9271;48.590;8.866;2023-05-25T10:26:34;30.00;43.70
18291;DHT22;9271;48.590;8.866;2023-05-25T10:29:02;31.00;42.10
18291;DHT22;9271;48.590;8.866;2023-05-25T10:31:30;32.00;40.80
18291;DHT22;9271;48.590;8.866;2023-05-25T10:33:58;33.00;40.60
18291;DHT22;9271;48.590;8.866;2023-05-25T10:36:26;33.80;38.70
18291;DHT22;9271;48.590;8.866;2023-05-25T10:38:53;34.50;37.40
18291;DHT22;9271;48.590;8.866;2023-05-25T10:41:21;33.40;37.60
18291;DHT22;9271;48.590;8.866;2023-05-25T10:43:48;31.50;39.50
18291;DHT22;9271;48.590;8.866;2023-05-25T10:46:17;29.60;42.40
18291;DHT22;9271;48.590;8.866;2023-05-25T10:48:45;28.80;44.40
18291;DHT22;9271;48.590;8.866;2023-05-25T10:51:12;30.30;44.80
18291;DHT22;9271;48.590;8.866;2023-05-25T10:53:42;33.00;40.00
18291;DHT22;9271;48.590;8.866;2023-05-25T10:56:09;34.70;38.70
18291;DHT22;9271;48.590;8.866;2023-05-25T10:58:42;34.80;37.10
18291;DHT22;9271;48.590;8.866;2023-05-25T11:01:10;35.00;37.30
18291;DHT22;9271;48.590;8.866;2023-05-25T11:03:52;33.90;37.10
18291;DHT22;9271;48.590;8.866;2023-05-25T11:06:22;32.30;38.80
18291;DHT22;9271;48.590;8.866;2023-05-25T11:08:50;31.10;40.60
18291;DHT22;9271;48.590;8.866;2023-05-25T11:11:19;29.90;42.10
18291;DHT22;9271;48.590;8.866;2023-05-25T11:13:48;28.90;44.40
18291;DHT22;9271;48.590;8.866;2023-05-25T11:16:20;29.20;44.80
18291;DHT22;9271;48.590;8.866;2023-05-25T11:18:50;30.00;44.00
18291;DHT22;9271;48.590;8.866;2023-05-25T11:21:22;29.60;43.50
18291;DHT22;9271;48.590;8.866;2023-05-25T11:23:56;28.70;44.60
18291;DHT22;9271;48.590;8.866;2023-05-25T11:26:24;27.50;46.60
18291;DHT22;9271;48.590;8.866;2023-05-25T11:28:53;26.80;48.20
18291;DHT22;9271;48.590;8.866;2023-05-25T11:31:21;27.00;47.90
18291;DHT22;9271;48.590;8.866;2023-05-25T11:33:54;27.70;47.60
18291;DHT22;9271;48.590;8.866;2023-05-25T11:36:23;27.90;47.60
18291;DHT22;9271;48.590;8.866;2023-05-25T11:38:51;27.70;47.40
18291;DHT22;9271;48.590;8.866;2023-05-25T11:41:18;27.60;47.90
18291;DHT22;9271;48.590;8.866;2023-05-25T11:43:46;27.50;47.80
18291;DHT22;9271;48.590;8.866;2023-05-25T11:46:15;27.20;48.40
18291;DHT22;9271;48.590;8.866;2023-05-25T11:48:49;27.20;48.00
18291;DHT22;9271;48.590;8.866;2023-05-25T11:51:17;27.70;47.90
18291;DHT22;9271;48.590;8.866;2023-05-25T11:53:44;27.80;48.00
18291;DHT22;9271;48.590;8.866;2023-05-25T11:56:12;27.70;47.60
18291;DHT22;9271;48.590;8.866;2023-05-25T11:58:39;27.60;48.30
18291;DHT22;9271;48.590;8.866;2023-05-25T12:01:17;28.00;48.40
18291;DHT22;9271;48.590;8.866;2023-05-25T12:03:44;29.10;46.80
18291;DHT22;9271;48.590;8.866;2023-05-25T12:06:28;29.30;45.90
18291;DHT22;9271;48.590;8.866;2023-05-25T12:08:56;29.40;45.10
18291;DHT22;9271;48.590;8.866;2023-05-25T12:11:27;28.90;45.90
18291;DHT22;9271;48.590;8.866;2023-05-25T12:13:54;29.00;46.50
18291;DHT22;9271;48.590;8.866;2023-05-25T12:16:22;30.30;45.50
18291;DHT22;9271;48.590;8.866;2023-05-25T12:18:50;29.80;44.70
18291;DHT22;9271;48.590;8.866;2023-05-25T12:21:17;29.20;45.90
18291;DHT22;9271;48.590;8.866;2023-05-25T12:23:44;29.60;46.60
18291;DHT22;9271;48.590;8.866;2023-05-25T12:26:13;30.00;45.40
18291;DHT22;9271;48.590;8.866;2023-05-25T12:28:56;29.60;44.80
18291;DHT22;9271;48.590;8.866;2023-05-25T12:31:25;29.50;45.80
18291;DHT22;9271;48.590;8.866;2023-05-25T12:34:06;28.90;44.50
18291;DHT22;9271;48.590;8.866;2023-05-25T12:36:38;28.90;45.90
18291;DHT22;9271;48.590;8.866;2023-05-25T12:39:05;30.00;45.20
18291;DHT22;9271;48.590;8.866;2023-05-25T12:41:41;30.60;45.00
18291;DHT22;9271;48.590;8.866;2023-05-25T12:44:18;31.10;44.70
18291;DHT22;9271;48.590;8.866;2023-05-25T12:46:47;30.90;43.40
18291;DHT22;9271;48.590;8.866;2023-05-25T12:49:25;30.40;43.70
18291;DHT22;9271;48.590;8.866;2023-05-25T12:51:52;30.50;44.30
18291;DHT22;9271;48.590;8.866;2023-05-25T12:54:37;30.60;43.60
18291;DHT22;9271;48.590;8.866;2023-05-25T12:57:06;30.20;44.40
18291;DHT22;9271;48.590;8.866;2023-05-25T12:59:33;29.90;44.90
18291;DHT22;9271;48.590;8.866;2023-05-25T13:02:03;29.90;45.10
18291;DHT22;9271;48.590;8.866;2023-05-25T13:04:30;30.20;44.30
18291;DHT22;9271;48.590;8.866;2023-05-25T13:06:57;30.50;44.20
18291;DHT22;9271;48.590;8.866;2023-05-25T13:09:24;30.90;44.60
18291;DHT22;9271;48.590;8.866;2023-05-25T13:11:51;31.80;42.10
18291;DHT22;9271;48.590;8.866;2023-05-25T13:14:19;31.80;43.40
18291;DHT22;9271;48.590;8.866;2023-05-25T13:16:46;32.70;41.20
18291;DHT22;9271;48.590;8.866;2023-05-25T13:19:14;32.60;40.90
18291;DHT22;9271;48.590;8.866;2023-05-25T13:21:41;32.90;39.70
18291;DHT22;9271;48.590;8.866;2023-05-25T13:24:07;32.60;40.80
18291;DHT22;9271;48.590;8.866;2023-05-25T13:26:34;32.30;40.90
18291;DHT22;9271;48.590;8.866;2023-05-25T13:29:01;33.10;42.60
18291;DHT22;9271;48.590;8.866;2023-05-25T13:31:27;34.20;40.10
18291;DHT22;9271;48.590;8.866;2023-05-25T13:33:55;35.00;37.30
18291;DHT22;9271;48.590;8.866;2023-05-25T13:36:24;34.10;38.10
18291;DHT22;9271;48.590;8.866;2023-05-25T13:38:50;33.10;39.40
18291;DHT22;9271;48.590;8.866;2023-05-25T13:41:17;32.90;40.80
18291;DHT22;9271;48.590;8.866;2023-05-25T13:43:44;32.80;40.30
18291;DHT22;9271;48.590;8.866;2023-05-25T13:46:10;32.40;41.20
18291;DHT22;9271;48.590;8.866;2023-05-25T13:48:37;32.20;40.40
18291;DHT22;9271;48.590;8.866;2023-05-25T13:51:05;32.80;39.20
18291;DHT22;9271;48.590;8.866;2023-05-25T13:53:33;33.30;38.50
18291;DHT22;9271;48.590;8.866;2023-05-25T13:55:59;33.00;40.10
18291;DHT22;9271;48.590;8.866;2023-05-25T13:58:26;32.10;40.20
18291;DHT22;9271;48.590;8.866;2023-05-25T14:00:52;31.00;41.40
18291;DHT22;9271;48.590;8.866;2023-05-25T14:03:19;30.10;43.70
18291;DHT22;9271;48.590;8.866;2023-05-25T14:05:46;30.80;43.40
18291;DHT22;9271;48.590;8.866;2023-05-25T14:08:13;32.10;40.90
18291;DHT22;9271;48.590;8.866;2023-05-25T14:10:41;33.10;39.80
18291;DHT22;9271;48.590;8.866;2023-05-25T14:13:08;32.80;40.10
18291;DHT22;9271;48.590;8.866;2023-05-25T14:15:35;32.80;40.30
18291;DHT22;9271;48.590;8.866;2023-05-25T14:18:02;33.50;39.40
18291;DHT22;9271;48.590;8.866;2023-05-25T14:20:28;33.60;38.50
18291;DHT22;9271;48.590;8.866;2023-05-25T14:22:58;33.10;39.20
18291;DHT22;9271;48.590;8.866;2023-05-25T14:25:26;32.00;40.70
18291;DHT22;9271;48.590;8.866;2023-05-25T14:27:54;32.00;40.70
18291;DHT22;9271;48.590;8.866;2023-05-25T14:30:22;32.20;41.90
18291;DHT22;9271;48.590;8.866;2023-05-25T14:32:49;32.30;39.40
18291;DHT22;9271;48.590;8.866;2023-05-25T14:35:15;32.60;40.80
18291;DHT22;9271;48.590;8.866;2023-05-25T14:37:42;32.30;41.00
18291;DHT22;9271;48.590;8.866;2023-05-25T14:40:10;31.40;41.50
18291;DHT22;9271;48.590;8.866;2023-05-25T14:42:37;30.30;43.50
18291;DHT22;9271;48.590;8.866;2023-05-25T14:45:06;30.50;43.30
18291;DHT22;9271;48.590;8.866;2023-05-25T14:47:33;30.90;43.30
18291;DHT22;9271;48.590;8.866;2023-05-25T14:50:00;31.20;42.20
18291;DHT22;9271;48.590;8.866;2023-05-25T14:52:26;31.60;42.60
18291;DHT22;9271;48.590;8.866;2023-05-25T14:54:53;32.30;41.00
18291;DHT22;9271;48.590;8.866;2023-05-25T14:57:19;31.80;41.10
18291;DHT22;9271;48.590;8.866;2023-05-25T14:59:46;30.80;41.80
18291;DHT22;9271;48.590;8.866;2023-05-25T15:02:14;30.30;43.30
18291;DHT22;9271;48.590;8.866;2023-05-25T15:04:41;30.00;44.70
18291;DHT22;9271;48.590;8.866;2023-05-25T15:07:07;29.10;44.60
18291;DHT22;9271;48.590;8.866;2023-05-25T15:09:34;29.40;44.40
18291;DHT22;9271;48.590;8.866;2023-05-25T15:12:01;29.80;44.30
18291;DHT22;9271;48.590;8.866;2023-05-25T15:14:27;30.40;43.90
18291;DHT22;9271;48.590;8.866;2023-05-25T15:16:54;30.50;43.80
18291;DHT22;9271;48.590;8.866;2023-05-25T15:19:22;30.90;43.30
18291;DHT22;9271;48.590;8.866;2023-05-25T15:21:49;31.20;42.70
18291;DHT22;9271;48.590;8.866;2023-05-25T15:24:16;31.10;42.00
18291;DHT22;9271;48.590;8.866;2023-05-25T15:26:42;30.60;42.70
18291;DHT22;9271;48.590;8.866;2023-05-25T15:29:09;29.40;44.40
18291;DHT22;9271;48.590;8.866;2023-05-25T15:31:36;28.80;45.00
18291;DHT22;9271;48.590;8.866;2023-05-25T15:34:02;28.80;45.10
18291;DHT22;9271;48.590;8.866;2023-05-25T15:36:30;28.50;46.80
18291;DHT22;9271;48.590;8.866;2023-05-25T15:38:57;28.60;46.30
18291;DHT22;9271;48.590;8.866;2023-05-25T15:41:24;28.00;46.00
18291;DHT22;9271;48.590;8.866;2023-05-25T15:43:52;27.70;46.60
18291;DHT22;9271;48.590;8.866;2023-05-25T15:46:22;27.50;48.30
18291;DHT22;9271;48.590;8.866;2023-05-25T15:48:49;27.50;47.70
18291;DHT22;9271;48.590;8.866;2023-05-25T15:51:15;27.90;47.40